SILO ALERT LOG
| Silo ID | Alert Type | Alert Message | Silo Type | Points | Depth (mm) | Strength | Temperature (°C) | Humidity (%) | Height (mm) | Volume (㎥) | Weight (t) | Flag | Time |
|---|---|---|---|---|---|---|---|---|---|---|---|---|---|
| DJSAD08 | Humidity | 습도센서 측정값이 80% 초과 | 평 | 633 | 2601 | 4633 | 9.2 | 83.1 | 4978 | 708.419 | 447.863 | 12 | 2024-01-12 07:39:40.000 |
| DJSAD03 | Humidity | 습도센서 측정값이 80% 초과 | 평 | 448 | 1652 | 6204 | 3 | 84.5 | 7127 | 295.04 | 186.524 | 0 | 2024-01-12 07:39:39.000 |
| DJSAD05 | Humidity | 습도센서 측정값이 80% 초과 | 평 | 488 | 893 | 15209 | 1.5 | 80.4 | 7886 | 326.463 | 206.39 | 11 | 2024-01-12 07:39:38.000 |
| DJSAD02 | Humidity | 습도센서 측정값이 80% 초과 | 평 | 391 | 1126 | 4280 | 2.6 | 87.2 | 7653 | 316.825 | 200.297 | 11 | 2024-01-12 07:39:38.000 |
| DJSAD11 | Humidity | 습도센서 측정값이 80% 초과 | 평 | 337 | 1639 | 3297 | 1.7 | 80.1 | 5940 | 845.233 | 534.357 | 11 | 2024-01-12 07:39:35.000 |
| DJHNR14 | Temperature | 온도센서 측정값이 0도 미만 | 호퍼 | 32 | 2869 | 4409 | -1.3 | 72.6 | 7510 | 108.043 | 68.305 | 11 | 2024-01-12 07:39:35.000 |
| DJHNR01 | Humidity | 습도센서 측정값이 80% 초과 | 호퍼 | 471 | 4315 | 4856 | 6.4 | 99.9 | 11064 | 472.262 | 298.564 | 13 | 2024-01-12 07:39:33.000 |
| DJSSD01 | Humidity | 습도센서 측정값이 80% 초과 | 평 | 797 | 2561 | 4660 | 5.9 | 83.2 | 5518 | 768.101 | 485.594 | 0 | 2024-01-12 07:39:33.000 |
| DJSSD04 | Temperature | 온도센서 상태 이상 | 평 | 0 | 8200 | 0 | -999 | -999 | -120 | -16.702 | 0 | 31 | 2024-01-12 07:39:33.000 |
| DJSAD17 | Humidity | 습도센서 측정값이 80% 초과 | 평 | 450 | 3078 | 4885 | 4.1 | 80.3 | 4501 | 448.21 | 283.358 | 0 | 2024-01-12 07:39:32.000 |
| DJSSD09 | Temperature | 온도센서 측정값이 0도 미만 | 평 | 121 | 2878 | 3038 | -45.4 | 0 | 4801 | 668.33 | 422.518 | 11 | 2024-01-12 07:39:32.000 |
| DJSSD05 | Temperature | 온도센서 측정값이 0도 미만 | 평 | 838 | 2554 | 4860 | -45.4 | 43.7 | 5525 | 768.978 | 486.148 | 0 | 2024-01-12 07:39:32.000 |
| DJHNR11 | Temperature | 온도센서 측정값이 0도 미만 | 호퍼 | 102 | 2608 | 1437 | -1.6 | 74.1 | 7771 | 113.688 | 71.873 | 11 | 2024-01-12 07:39:32.000 |
| DJSAD12 | Humidity | 습도센서 측정값이 80% 초과 | 평 | 0 | 7700 | 0 | 4.5 | 83.5 | -120 | -17.075 | 0 | 31 | 2024-01-12 07:39:32.000 |
| DJSSD11 | Temperature | 온도센서 측정값이 0도 미만 | 호퍼 | 448 | 7393 | 148 | -1.3 | 77.5 | 3836 | 28.813 | 15.703 | 11 | 2024-01-12 07:39:31.000 |
| DJSAD16 | Humidity | 습도센서 측정값이 80% 초과 | 평 | 92 | 6501 | 3423 | 4.6 | 80.2 | 1078 | 107.383 | 67.887 | 11 | 2024-01-12 07:39:31.000 |
| DJDJD04 | Humidity | 습도센서 측정값이 80% 초과 | 평 | 280 | 4216 | 4422 | 3.6 | 81.6 | 3463 | 419.666 | 265.313 | 11 | 2024-01-12 07:39:31.000 |
| DJSAD18 | Humidity | 습도센서 측정값이 80% 초과 | 평 | 121 | 1404 | 5820 | 5.1 | 80.8 | 6175 | 614.905 | 388.743 | 11 | 2024-01-12 07:39:30.000 |
| DJDJD01 | Humidity | 습도센서 측정값이 80% 초과 | 평 | 306 | 6855 | 6014 | 2 | 80.1 | 824 | 99.885 | 63.148 | 11 | 2024-01-12 07:39:30.000 |
| DJSSD12 | Temperature | 온도센서 상태 이상 | 호퍼 | 0 | 11350 | 0 | -999 | -999 | -120 | 0 | 0 | 31 | 2024-01-12 07:39:25.000 |
[첫 페이지] [9984] [9985] [9986] [9987] 9988 [9989] [9990] [9991] [9992] [마지막 페이지]